PWSweather.com
Personal Weather Stations
Station Observations
BC052CD
On, Kemptville, ON K0G 1J0

OnKemptville, ON K0G 1J0

Lat: 45.0173179, Lon: -75.6329355

Elevation: 295

Station Type: National Geographic 265NC

http://kerrentweather.ca

High Low Average
Temperature 86.5°F30.3°C 68.0°F20.0°C 74.8°F23.8°C
Dew Point 75.8°F24.3°C 67.5°F19.7°C 70.5°F21.4°C
Winds 5.6 mph 9.0 kmh Calm Calm 1.0 mph SE1.6 kmh SE
Wind Gusts 14.3 mph23.0 kmh -- 5.0 mph8.0 kmh
Humidity 100% 55% 88%
Pressure 29.99 in1015.6 mb 29.84 in1010.5 mb -
Precipitation 0.16 in4.1 mm - -
Hour Temp Dew Point Humidity Winds Wind Gusts Pressure Precip Precip Rate Daily Precip Total
12:00 AM 71.2°F21.8°C 68.5°F20.3°C 91% Calm Calm -- 30.00 in1015.9 mb 0.00 in0.0 mm 0.00 in0.0 mm 0.00 in0.0 mm
12:15 AM 71.2°F21.8°C 68.8°F20.4°C 92% Calm Calm 2.8 mph4.5 kmh 30.00 in1015.9 mb 0.00 in0.0 mm 0.00 in0.0 mm 0.00 in0.0 mm
12:30 AM 71.2°F21.8°C 69.1°F20.6°C 93% Calm Calm 2.0 mph3.2 kmh 29.99 in1015.6 mb 0.00 in0.0 mm 0.00 in0.0 mm 0.00 in0.0 mm
12:45 AM 71.1°F21.7°C 69.0°F20.6°C 93% Calm Calm -- 29.99 in1015.6 mb 0.00 in0.0 mm 0.00 in0.0 mm 0.00 in0.0 mm
01:00 AM 70.5°F21.4°C 68.4°F20.2°C 93% Calm Calm -- 29.99 in1015.6 mb 0.00 in0.0 mm 0.00 in0.0 mm 0.00 in0.0 mm
01:15 AM 70.2°F21.2°C 68.1°F20.1°C 93% Calm Calm -- 29.99 in1015.6 mb 0.00 in0.0 mm 0.00 in0.0 mm 0.00 in0.0 mm
01:30 AM 69.8°F21.0°C 68.0°F20.0°C 94% Calm Calm -- 29.99 in1015.6 mb 0.00 in0.0 mm 0.00 in0.0 mm 0.00 in0.0 mm
01:45 AM 69.4°F20.8°C 67.7°F19.8°C 94% Calm Calm 0.8 mph1.3 kmh 29.99 in1015.6 mb 0.00 in0.0 mm 0.00 in0.0 mm 0.00 in0.0 mm
02:00 AM 69.3°F20.7°C 67.8°F19.9°C 95% Calm Calm 2.0 mph3.2 kmh 29.98 in1015.2 mb 0.00 in0.0 mm 0.00 in0.0 mm 0.00 in0.0 mm
02:15 AM 69.1°F20.6°C 67.6°F19.8°C 95% Calm Calm -- 29.98 in1015.2 mb 0.00 in0.0 mm 0.00 in0.0 mm 0.00 in0.0 mm
02:30 AM 69.1°F20.6°C 67.9°F19.9°C 96% Calm Calm 2.0 mph3.2 kmh 29.98 in1015.2 mb 0.00 in0.0 mm 0.00 in0.0 mm 0.00 in0.0 mm
02:45 AM 68.9°F20.5°C 67.7°F19.8°C 96% Calm Calm 2.8 mph4.5 kmh 29.98 in1015.2 mb 0.00 in0.0 mm 0.00 in0.0 mm 0.00 in0.0 mm
03:00 AM 68.9°F20.5°C 68.0°F20.0°C 97% Calm Calm 0.8 mph1.3 kmh 29.97 in1014.9 mb 0.00 in0.0 mm 0.00 in0.0 mm 0.00 in0.0 mm
03:15 AM 69.1°F20.6°C 68.5°F20.3°C 98% Calm Calm 2.8 mph4.5 kmh 29.97 in1014.9 mb 0.00 in0.0 mm 0.00 in0.0 mm 0.00 in0.0 mm
03:30 AM 69.3°F20.7°C 68.7°F20.4°C 98% Calm Calm 3.9 mph6.3 kmh 29.96 in1014.6 mb 0.00 in0.0 mm 0.00 in0.0 mm 0.00 in0.0 mm
03:45 AM 69.4°F20.8°C 69.5°F20.8°C 100% 2.0 mph W3.2 kmh W 3.9 mph6.3 kmh 29.96 in1014.6 mb 0.00 in0.0 mm 0.00 in0.0 mm 0.00 in0.0 mm
04:00 AM 69.3°F20.7°C 69.3°F20.7°C 100% Calm Calm 2.8 mph4.5 kmh 29.96 in1014.6 mb 0.00 in0.0 mm 0.00 in0.0 mm 0.00 in0.0 mm
04:15 AM 69.1°F20.6°C 69.1°F20.6°C 100% Calm Calm 2.8 mph4.5 kmh 29.95 in1014.2 mb 0.00 in0.0 mm 0.00 in0.0 mm 0.00 in0.0 mm
04:30 AM 68.9°F20.5°C 68.9°F20.5°C 100% Calm Calm 2.0 mph3.2 kmh 29.95 in1014.2 mb 0.00 in0.0 mm 0.00 in0.0 mm 0.00 in0.0 mm
04:45 AM 68.7°F20.4°C 68.8°F20.4°C 100% 2.0 mph W3.2 kmh W 4.8 mph7.7 kmh 29.95 in1014.2 mb 0.00 in0.0 mm 0.00 in0.0 mm 0.00 in0.0 mm
05:00 AM 68.7°F20.4°C 68.8°F20.4°C 100% Calm Calm 2.8 mph4.5 kmh 29.95 in1014.2 mb 0.00 in0.0 mm 0.00 in0.0 mm 0.00 in0.0 mm
05:15 AM 68.5°F20.3°C 68.6°F20.3°C 100% Calm Calm 2.0 mph3.2 kmh 29.95 in1014.2 mb 0.00 in0.0 mm 0.00 in0.0 mm 0.00 in0.0 mm
05:30 AM 68.2°F20.1°C 68.2°F20.1°C 100% Calm Calm 2.0 mph3.2 kmh 29.95 in1014.2 mb 0.00 in0.0 mm 0.00 in0.0 mm 0.00 in0.0 mm
05:45 AM 68.0°F20.0°C 68.0°F20.0°C 100% Calm Calm 4.8 mph7.7 kmh 29.95 in1014.2 mb 0.00 in0.0 mm 0.00 in0.0 mm 0.00 in0.0 mm
06:00 AM 68.2°F20.1°C 68.2°F20.1°C 100% 2.0 mph W3.2 kmh W 6.7 mph10.8 kmh 29.95 in1014.2 mb 0.00 in0.0 mm 0.00 in0.0 mm 0.00 in0.0 mm
06:15 AM 68.4°F20.2°C 68.4°F20.2°C 100% 2.0 mph W3.2 kmh W 5.6 mph9.0 kmh 29.95 in1014.2 mb 0.00 in0.0 mm 0.00 in0.0 mm 0.00 in0.0 mm
06:30 AM 68.5°F20.3°C 68.6°F20.3°C 100% 2.0 mph W3.2 kmh W 5.6 mph9.0 kmh 29.95 in1014.2 mb 0.00 in0.0 mm 0.00 in0.0 mm 0.00 in0.0 mm
06:45 AM 68.7°F20.4°C 68.8°F20.4°C 100% 2.8 mph W4.5 kmh W 5.6 mph9.0 kmh 29.95 in1014.2 mb 0.00 in0.0 mm 0.00 in0.0 mm 0.00 in0.0 mm
07:00 AM 68.7°F20.4°C 68.8°F20.4°C 100% 2.0 mph W3.2 kmh W 5.6 mph9.0 kmh 29.95 in1014.2 mb 0.00 in0.0 mm 0.00 in0.0 mm 0.00 in0.0 mm
07:15 AM 69.3°F20.7°C 69.3°F20.7°C 100% 0.8 mph W1.3 kmh W 2.8 mph4.5 kmh 29.95 in1014.2 mb 0.00 in0.0 mm 0.00 in0.0 mm 0.00 in0.0 mm
07:30 AM 69.6°F20.9°C 69.7°F20.9°C 100% Calm Calm 4.8 mph7.7 kmh 29.95 in1014.2 mb 0.00 in0.0 mm 0.00 in0.0 mm 0.00 in0.0 mm
07:45 AM 69.8°F21.0°C 69.8°F21.0°C 100% Calm Calm 4.8 mph7.7 kmh 29.95 in1014.2 mb 0.00 in0.0 mm 0.00 in0.0 mm 0.00 in0.0 mm
08:00 AM 70.3°F21.3°C 70.4°F21.3°C 100% 0.8 mph W1.3 kmh W 4.8 mph7.7 kmh 29.95 in1014.2 mb 0.00 in0.0 mm 0.00 in0.0 mm 0.00 in0.0 mm
08:15 AM 71.2°F21.8°C 71.3°F21.8°C 100% 2.0 mph W3.2 kmh W 5.6 mph9.0 kmh 29.95 in1014.2 mb 0.00 in0.0 mm 0.00 in0.0 mm 0.00 in0.0 mm
08:30 AM 72.9°F22.7°C 72.9°F22.7°C 100% 0.8 mph W1.3 kmh W 6.7 mph10.8 kmh 29.94 in1013.9 mb 0.00 in0.0 mm 0.00 in0.0 mm 0.00 in0.0 mm
08:45 AM 74.7°F23.7°C 74.7°F23.7°C 100% 2.8 mph W4.5 kmh W 6.7 mph10.8 kmh 29.94 in1013.9 mb 0.00 in0.0 mm 0.00 in0.0 mm 0.00 in0.0 mm
09:00 AM 75.7°F24.3°C 75.8°F24.3°C 100% 2.8 mph W4.5 kmh W 8.7 mph14.0 kmh 29.94 in1013.9 mb 0.00 in0.0 mm 0.00 in0.0 mm 0.00 in0.0 mm
09:15 AM 76.1°F24.5°C 74.6°F23.7°C 95% 0.8 mph W1.3 kmh W 12.3 mph19.8 kmh 29.94 in1013.9 mb 0.00 in0.0 mm 0.00 in0.0 mm 0.00 in0.0 mm
09:30 AM 76.3°F24.6°C 73.8°F23.2°C 92% 3.9 mph W6.3 kmh W 9.5 mph15.3 kmh 29.94 in1013.9 mb 0.00 in0.0 mm 0.00 in0.0 mm 0.00 in0.0 mm
09:45 AM 77.0°F25.0°C 73.9°F23.3°C 90% 2.8 mph W4.5 kmh W 7.5 mph12.1 kmh 29.94 in1013.9 mb 0.00 in0.0 mm 0.00 in0.0 mm 0.00 in0.0 mm
10:00 AM 78.3°F25.7°C 74.1°F23.4°C 87% 2.0 mph W3.2 kmh W 10.3 mph16.6 kmh 29.93 in1013.5 mb 0.00 in0.0 mm 0.00 in0.0 mm 0.00 in0.0 mm
10:15 AM 80.4°F26.9°C 74.5°F23.6°C 82% 2.8 mph W4.5 kmh W 7.5 mph12.1 kmh 29.93 in1013.5 mb 0.00 in0.0 mm 0.00 in0.0 mm 0.00 in0.0 mm
10:30 AM 81.5°F27.5°C 73.7°F23.2°C 77% 3.9 mph W6.3 kmh W 8.7 mph14.0 kmh 29.93 in1013.5 mb 0.00 in0.0 mm 0.00 in0.0 mm 0.00 in0.0 mm
10:45 AM 81.3°F27.4°C 72.3°F22.4°C 74% 2.0 mph W3.2 kmh W 7.5 mph12.1 kmh 29.93 in1013.5 mb 0.00 in0.0 mm 0.00 in0.0 mm 0.00 in0.0 mm
11:00 AM 80.8°F27.1°C 71.4°F21.9°C 73% 2.0 mph W3.2 kmh W 12.3 mph19.8 kmh 29.93 in1013.5 mb 0.00 in0.0 mm 0.00 in0.0 mm 0.00 in0.0 mm
11:15 AM 80.4°F26.9°C 71.8°F22.1°C 75% 2.8 mph W4.5 kmh W 8.7 mph14.0 kmh 29.93 in1013.5 mb 0.00 in0.0 mm 0.00 in0.0 mm 0.00 in0.0 mm
11:30 AM 82.0°F27.8°C 73.0°F22.8°C 74% 2.8 mph W4.5 kmh W 8.7 mph14.0 kmh 29.92 in1013.2 mb 0.00 in0.0 mm 0.00 in0.0 mm 0.00 in0.0 mm
11:45 AM 82.6°F28.1°C 70.6°F21.4°C 67% 4.8 mph W7.7 kmh W 13.4 mph21.6 kmh 29.92 in1013.2 mb 0.00 in0.0 mm 0.00 in0.0 mm 0.00 in0.0 mm
12:00 PM 81.9°F27.7°C 69.9°F21.1°C 67% 0.8 mph W1.3 kmh W 9.5 mph15.3 kmh 29.91 in1012.9 mb 0.00 in0.0 mm 0.00 in0.0 mm 0.00 in0.0 mm
12:15 PM 81.3°F27.4°C 69.4°F20.8°C 67% 3.9 mph W6.3 kmh W 13.4 mph21.6 kmh 29.91 in1012.9 mb 0.00 in0.0 mm 0.00 in0.0 mm 0.00 in0.0 mm
12:30 PM 80.1°F26.7°C 69.0°F20.6°C 69% 5.6 mph W9.0 kmh W 12.3 mph19.8 kmh 29.92 in1013.2 mb 0.00 in0.0 mm 0.00 in0.0 mm 0.00 in0.0 mm
12:45 PM 79.2°F26.2°C 68.6°F20.3°C 70% 0.8 mph W1.3 kmh W 13.4 mph21.6 kmh 29.91 in1012.9 mb 0.00 in0.0 mm 0.00 in0.0 mm 0.00 in0.0 mm
01:00 PM 78.4°F25.8°C 67.5°F19.7°C 69% 2.8 mph W4.5 kmh W 14.3 mph23.0 kmh 29.91 in1012.9 mb 0.00 in0.0 mm 0.00 in0.0 mm 0.00 in0.0 mm
01:15 PM 78.1°F25.6°C 68.4°F20.2°C 72% 3.9 mph W6.3 kmh W 8.7 mph14.0 kmh 29.91 in1012.9 mb 0.00 in0.0 mm 0.00 in0.0 mm 0.00 in0.0 mm
01:30 PM 78.3°F25.7°C 68.9°F20.5°C 73% 0.8 mph W1.3 kmh W 5.6 mph9.0 kmh 29.90 in1012.5 mb 0.00 in0.0 mm 0.00 in0.0 mm 0.00 in0.0 mm
01:45 PM 79.0°F26.1°C 69.2°F20.7°C 72% 2.0 mph W3.2 kmh W 7.5 mph12.1 kmh 29.90 in1012.5 mb 0.00 in0.0 mm 0.00 in0.0 mm 0.00 in0.0 mm
02:00 PM 80.8°F27.1°C 70.1°F21.2°C 70% 2.0 mph W3.2 kmh W 7.5 mph12.1 kmh 29.89 in1012.2 mb 0.00 in0.0 mm 0.00 in0.0 mm 0.00 in0.0 mm
02:15 PM 82.2°F27.9°C 70.2°F21.2°C 67% 0.8 mph W1.3 kmh W 7.5 mph12.1 kmh 29.89 in1012.2 mb 0.00 in0.0 mm 0.00 in0.0 mm 0.00 in0.0 mm
02:30 PM 82.6°F28.1°C 69.7°F20.9°C 65% 2.0 mph W3.2 kmh W 8.7 mph14.0 kmh 29.87 in1011.5 mb 0.00 in0.0 mm 0.00 in0.0 mm 0.00 in0.0 mm
02:45 PM 83.3°F28.5°C 70.4°F21.3°C 65% 0.8 mph W1.3 kmh W 7.5 mph12.1 kmh 29.87 in1011.5 mb 0.00 in0.0 mm 0.00 in0.0 mm 0.00 in0.0 mm
03:00 PM 83.8°F28.8°C 70.9°F21.6°C 65% 2.0 mph W3.2 kmh W 9.5 mph15.3 kmh 29.87 in1011.5 mb 0.00 in0.0 mm 0.00 in0.0 mm 0.00 in0.0 mm
03:15 PM 83.7°F28.7°C 69.8°F21.0°C 63% 3.9 mph W6.3 kmh W 9.5 mph15.3 kmh 29.87 in1011.5 mb 0.00 in0.0 mm 0.00 in0.0 mm 0.00 in0.0 mm
03:30 PM 85.8°F29.9°C 70.4°F21.3°C 60% 3.9 mph W6.3 kmh W 9.5 mph15.3 kmh 29.86 in1011.2 mb 0.00 in0.0 mm 0.00 in0.0 mm 0.00 in0.0 mm
03:45 PM 86.5°F30.3°C 68.5°F20.3°C 55% 0.8 mph W1.3 kmh W 8.7 mph14.0 kmh 29.86 in1011.2 mb 0.00 in0.0 mm 0.00 in0.0 mm 0.00 in0.0 mm
04:00 PM 85.5°F29.7°C 68.0°F20.0°C 56% 2.0 mph W3.2 kmh W 6.7 mph10.8 kmh 29.86 in1011.2 mb 0.00 in0.0 mm 0.00 in0.0 mm 0.00 in0.0 mm
04:15 PM 84.6°F29.2°C 68.7°F20.4°C 59% 2.0 mph W3.2 kmh W 7.5 mph12.1 kmh 29.86 in1011.2 mb 0.00 in0.0 mm 0.00 in0.0 mm 0.00 in0.0 mm
04:30 PM 83.5°F28.6°C 69.1°F20.6°C 62% 3.9 mph W6.3 kmh W 8.7 mph14.0 kmh 29.86 in1011.2 mb 0.00 in0.0 mm 0.00 in0.0 mm 0.00 in0.0 mm
04:45 PM 81.7°F27.6°C 69.7°F20.9°C 67% 2.8 mph W4.5 kmh W 9.5 mph15.3 kmh 29.85 in1010.8 mb 0.04 in1.0 mm 0.16 in4.1 mm 0.04 in1.0 mm
05:00 PM 79.2°F26.2°C 69.8°F21.0°C 73% 2.8 mph W4.5 kmh W 6.7 mph10.8 kmh 29.86 in1011.2 mb 0.13 in3.3 mm 0.12 in3.0 mm 0.13 in3.3 mm
05:15 PM 77.9°F25.5°C 70.9°F21.6°C 79% Calm Calm 2.0 mph3.2 kmh 29.84 in1010.5 mb 0.16 in4.1 mm 0.12 in3.0 mm 0.16 in4.1 mm
05:30 PM 77.5°F25.3°C 72.4°F22.4°C 84% 0.8 mph W1.3 kmh W 2.8 mph4.5 kmh 29.84 in1010.5 mb 0.16 in4.1 mm 0.00 in0.0 mm 0.16 in4.1 mm
05:45 PM 78.1°F25.6°C 73.6°F23.1°C 86% 2.8 mph W4.5 kmh W 6.7 mph10.8 kmh 29.84 in1010.5 mb 0.12 in3.0 mm 0.00 in0.0 mm 0.16 in4.1 mm
06:00 PM 78.3°F25.7°C 73.4°F23.0°C 85% 2.0 mph W3.2 kmh W 9.5 mph15.3 kmh 29.84 in1010.5 mb 0.03 in0.8 mm 0.00 in0.0 mm 0.16 in4.1 mm
06:15 PM 78.4°F25.8°C 73.3°F22.9°C 84% 0.8 mph W1.3 kmh W 5.6 mph9.0 kmh 29.85 in1010.8 mb 0.00 in0.0 mm 0.00 in0.0 mm 0.16 in4.1 mm
06:30 PM 77.9°F25.5°C 72.7°F22.6°C 84% Calm Calm 7.5 mph12.1 kmh 29.85 in1010.8 mb 0.00 in0.0 mm 0.00 in0.0 mm 0.16 in4.1 mm
06:45 PM 77.4°F25.2°C 72.2°F22.3°C 84% Calm Calm 2.8 mph4.5 kmh 29.85 in1010.8 mb 0.00 in0.0 mm 0.00 in0.0 mm 0.16 in4.1 mm
07:00 PM 77.0°F25.0°C 72.2°F22.3°C 85% Calm Calm 0.8 mph1.3 kmh 29.85 in1010.8 mb 0.00 in0.0 mm 0.00 in0.0 mm 0.16 in4.1 mm
07:15 PM 76.3°F24.6°C 71.8°F22.1°C 86% Calm Calm 0.8 mph1.3 kmh 29.85 in1010.8 mb 0.00 in0.0 mm 0.00 in0.0 mm 0.16 in4.1 mm
07:30 PM 75.6°F24.2°C 71.8°F22.1°C 88% Calm Calm 2.0 mph3.2 kmh 29.85 in1010.8 mb 0.00 in0.0 mm 0.00 in0.0 mm 0.16 in4.1 mm
07:45 PM 75.2°F24.0°C 72.1°F22.3°C 90% Calm Calm 0.8 mph1.3 kmh 29.86 in1011.2 mb 0.00 in0.0 mm 0.00 in0.0 mm 0.16 in4.1 mm
08:00 PM 74.8°F23.8°C 72.1°F22.3°C 91% Calm Calm 0.8 mph1.3 kmh 29.86 in1011.2 mb 0.00 in0.0 mm 0.00 in0.0 mm 0.16 in4.1 mm
08:15 PM 74.3°F23.5°C 71.9°F22.2°C 92% Calm Calm 0.8 mph1.3 kmh 29.86 in1011.2 mb 0.00 in0.0 mm 0.00 in0.0 mm 0.16 in4.1 mm
08:30 PM 73.9°F23.3°C 71.8°F22.1°C 93% Calm Calm 2.0 mph3.2 kmh 29.86 in1011.2 mb 0.00 in0.0 mm 0.00 in0.0 mm 0.16 in4.1 mm
08:45 PM 73.6°F23.1°C 71.8°F22.1°C 94% Calm Calm 2.0 mph3.2 kmh 29.86 in1011.2 mb 0.00 in0.0 mm 0.00 in0.0 mm 0.16 in4.1 mm
09:00 PM 73.2°F22.9°C 71.7°F22.1°C 95% Calm Calm 2.0 mph3.2 kmh 29.87 in1011.5 mb 0.00 in0.0 mm 0.00 in0.0 mm 0.16 in4.1 mm
09:15 PM 73.0°F22.8°C 71.6°F22.0°C 95% Calm Calm 2.0 mph3.2 kmh 29.86 in1011.2 mb 0.00 in0.0 mm 0.00 in0.0 mm 0.16 in4.1 mm
09:30 PM 72.5°F22.5°C 71.3°F21.8°C 96% 0.8 mph W1.3 kmh W 2.0 mph3.2 kmh 29.87 in1011.5 mb 0.00 in0.0 mm 0.00 in0.0 mm 0.16 in4.1 mm
09:45 PM 72.3°F22.4°C 71.5°F21.9°C 97% Calm Calm 2.8 mph4.5 kmh 29.87 in1011.5 mb 0.00 in0.0 mm 0.00 in0.0 mm 0.16 in4.1 mm
10:00 PM 72.1°F22.3°C 71.3°F21.8°C 97% Calm Calm 0.8 mph1.3 kmh 29.87 in1011.5 mb 0.00 in0.0 mm 0.00 in0.0 mm 0.16 in4.1 mm
10:15 PM 72.0°F22.2°C 71.4°F21.9°C 98% Calm Calm -- 29.86 in1011.2 mb 0.00 in0.0 mm 0.00 in0.0 mm 0.16 in4.1 mm
10:30 PM 71.8°F22.1°C 71.2°F21.8°C 98% Calm Calm 0.8 mph1.3 kmh 29.86 in1011.2 mb 0.00 in0.0 mm 0.00 in0.0 mm 0.16 in4.1 mm
10:45 PM 71.4°F21.9°C 70.9°F21.6°C 98% Calm Calm 0.8 mph1.3 kmh 29.87 in1011.5 mb 0.00 in0.0 mm 0.00 in0.0 mm 0.16 in4.1 mm
11:00 PM 71.2°F21.8°C 71.3°F21.8°C 100% Calm Calm 0.8 mph1.3 kmh 29.86 in1011.2 mb 0.00 in0.0 mm 0.00 in0.0 mm 0.16 in4.1 mm
11:15 PM 71.2°F21.8°C 71.3°F21.8°C 100% Calm Calm 0.8 mph1.3 kmh 29.86 in1011.2 mb 0.00 in0.0 mm 0.00 in0.0 mm 0.16 in4.1 mm
11:30 PM 71.2°F21.8°C 71.3°F21.8°C 100% Calm Calm 2.0 mph3.2 kmh 29.86 in1011.2 mb 0.00 in0.0 mm 0.00 in0.0 mm 0.16 in4.1 mm
11:45 PM 70.9°F21.6°C 70.9°F21.6°C 100% Calm Calm -- 29.87 in1011.5 mb 0.00 in0.0 mm 0.00 in0.0 mm 0.16 in4.1 mm